createdAt,value
2022-12-11T00:01:14.366Z,25.10
2022-12-11T00:03:41.867Z,21.15
2022-12-11T00:06:10.706Z,17.95
2022-12-11T00:08:37.672Z,19.60
2022-12-11T00:11:05.432Z,19.00
2022-12-11T00:13:32.741Z,22.88
2022-12-11T00:15:59.716Z,16.70
2022-12-11T00:18:26.675Z,18.52
2022-12-11T00:20:53.541Z,18.83
2022-12-11T00:23:20.795Z,24.33
2022-12-11T00:25:48.422Z,19.20
2022-12-11T00:28:19.082Z,16.75
2022-12-11T00:30:46.610Z,21.33
2022-12-11T00:33:14.651Z,17.75
2022-12-11T00:35:43.821Z,21.52
2022-12-11T00:38:19.692Z,17.58
2022-12-11T00:40:46.721Z,15.20
2022-12-11T00:43:13.822Z,18.30
2022-12-11T00:45:47.692Z,13.52
2022-12-11T00:48:14.994Z,15.65
2022-12-11T00:50:41.866Z,17.23
2022-12-11T00:53:09.047Z,19.55
2022-12-11T00:55:40.917Z,15.57
2022-12-11T00:58:08.465Z,12.55
2022-12-11T01:00:35.518Z,20.90
2022-12-11T01:03:02.656Z,13.35
2022-12-11T01:05:29.617Z,14.68
2022-12-11T01:07:56.649Z,14.38
2022-12-11T01:10:26.418Z,12.07
2022-12-11T01:12:59.377Z,13.25
2022-12-11T01:15:29.271Z,14.70
2022-12-11T01:17:56.514Z,12.52
2022-12-11T01:20:24.485Z,14.63
2022-12-11T01:22:59.141Z,14.02
2022-12-11T01:25:26.959Z,13.73
2022-12-11T01:27:55.360Z,15.38
2022-12-11T01:30:24.808Z,13.65
2022-12-11T01:35:19.940Z,11.98
2022-12-11T01:37:46.989Z,11.85
2022-12-11T01:40:15.955Z,13.48
2022-12-11T01:42:43.091Z,13.15
2022-12-11T01:45:24.716Z,15.73
2022-12-11T01:48:06.681Z,10.95
2022-12-11T01:50:36.785Z,9.18
2022-12-11T01:53:06.815Z,13.10
2022-12-11T01:55:34.112Z,11.27
2022-12-11T01:58:02.161Z,12.70
2022-12-11T02:00:29.197Z,12.95
2022-12-11T02:02:56.091Z,16.60
2022-12-11T02:05:22.960Z,12.93
2022-12-11T02:07:57.140Z,13.27
2022-12-11T02:10:42.524Z,14.45
2022-12-11T02:13:13.942Z,11.65
2022-12-11T02:16:30.043Z,12.77
2022-12-11T02:19:02.937Z,10.05
2022-12-11T02:21:37.156Z,12.07
2022-12-11T02:24:18.913Z,12.48
2022-12-11T02:27:08.805Z,11.48
2022-12-11T02:29:37.505Z,11.55
2022-12-11T02:32:24.185Z,15.57
2022-12-11T02:35:03.844Z,15.73
2022-12-11T02:37:32.275Z,12.27
2022-12-11T02:39:59.144Z,13.88
2022-12-11T02:42:29.790Z,14.95
2022-12-11T02:44:57.975Z,12.43
2022-12-11T02:47:26.120Z,12.65
2022-12-11T02:49:53.595Z,10.02
2022-12-11T02:52:22.316Z,12.60
2022-12-11T02:54:49.905Z,9.68
2022-12-11T02:57:32.085Z,10.70
2022-12-11T02:59:59.071Z,12.65
2022-12-11T03:02:26.026Z,9.85
2022-12-11T03:04:53.158Z,11.68
2022-12-11T03:07:25.227Z,10.27
2022-12-11T03:09:52.481Z,11.07
2022-12-11T03:12:33.330Z,14.65
2022-12-11T03:15:01.925Z,16.52
2022-12-11T03:17:39.189Z,12.93
2022-12-11T03:20:24.717Z,15.35
2022-12-11T03:23:17.869Z,14.63
2022-12-11T03:25:55.013Z,14.05
2022-12-11T03:28:33.159Z,16.60
2022-12-11T03:31:03.934Z,11.60
2022-12-11T03:33:35.870Z,13.27
2022-12-11T03:36:11.838Z,11.38
2022-12-11T03:38:46.892Z,10.77
2022-12-11T03:41:15.581Z,11.43
2022-12-11T03:43:42.700Z,12.43
2022-12-11T03:46:10.507Z,11.93
2022-12-11T03:48:38.831Z,10.38
2022-12-11T03:51:07.130Z,15.00
2022-12-11T03:53:35.920Z,14.65
2022-12-11T03:56:04.885Z,13.60
2022-12-11T03:58:32.378Z,12.77
2022-12-11T04:00:59.366Z,11.07
2022-12-11T04:03:26.517Z,12.55
2022-12-11T04:05:54.994Z,11.45
2022-12-11T04:08:23.207Z,13.23
2022-12-11T04:11:14.117Z,11.23
2022-12-11T04:13:41.926Z,15.45
2022-12-11T04:16:09.195Z,11.77
2022-12-11T04:18:54.838Z,16.15
2022-12-11T04:21:40.405Z,12.45
2022-12-11T04:24:16.855Z,12.02
2022-12-11T04:26:46.445Z,15.18
2022-12-11T04:29:14.156Z,10.93
2022-12-11T04:31:41.089Z,12.45
2022-12-11T04:34:07.972Z,13.15
2022-12-11T04:36:34.858Z,8.60
2022-12-11T04:39:01.889Z,10.18
2022-12-11T04:41:28.977Z,8.25
2022-12-11T04:43:55.850Z,9.48
2022-12-11T04:46:24.527Z,11.85
2022-12-11T04:48:57.323Z,14.38
2022-12-11T04:51:25.206Z,11.90
2022-12-11T04:53:52.132Z,9.35
2022-12-11T04:56:19.162Z,9.25
2022-12-11T04:58:47.213Z,9.35
2022-12-11T05:01:17.749Z,7.80
2022-12-11T05:03:44.710Z,6.88
2022-12-11T05:06:12.431Z,8.35
2022-12-11T05:08:40.836Z,7.28
2022-12-11T05:11:11.515Z,8.57
2022-12-11T05:13:39.036Z,12.57
2022-12-11T05:16:07.317Z,11.55
2022-12-11T05:18:34.665Z,9.80
2022-12-11T05:21:04.091Z,11.60
2022-12-11T05:23:31.218Z,8.10
2022-12-11T05:26:00.719Z,11.48
2022-12-11T05:30:59.851Z,7.65
2022-12-11T05:33:28.367Z,9.88
2022-12-11T05:35:55.576Z,8.88
2022-12-11T05:38:22.901Z,6.25
2022-12-11T05:41:00.864Z,7.55
2022-12-11T05:43:29.455Z,6.65
2022-12-11T05:45:57.088Z,8.20
2022-12-11T05:48:24.044Z,7.30
2022-12-11T05:50:59.332Z,6.05
2022-12-11T05:53:26.677Z,9.55
2022-12-11T05:55:53.770Z,7.32
2022-12-11T05:58:21.132Z,6.60
2022-12-11T06:00:48.719Z,6.30
2022-12-11T06:03:15.746Z,6.20
2022-12-11T06:05:43.585Z,7.43
2022-12-11T06:08:10.612Z,6.70
2022-12-11T06:10:37.507Z,6.68
2022-12-11T06:13:04.620Z,6.82
2022-12-11T06:15:32.925Z,8.00
2022-12-11T06:18:00.231Z,9.65
2022-12-11T06:20:27.136Z,7.53
2022-12-11T06:22:54.046Z,6.75
2022-12-11T06:25:20.930Z,8.25
2022-12-11T06:27:47.866Z,6.82
2022-12-11T06:30:14.905Z,9.75
2022-12-11T06:32:42.291Z,11.23
2022-12-11T06:35:09.542Z,8.95
2022-12-11T06:37:37.216Z,8.32
2022-12-11T06:40:05.651Z,9.38
2022-12-11T06:42:32.633Z,6.53
2022-12-11T06:45:00.095Z,10.00
2022-12-11T06:47:28.140Z,8.65
2022-12-11T06:49:55.086Z,8.45
2022-12-11T06:52:23.109Z,7.65
2022-12-11T06:54:50.465Z,8.40
2022-12-11T06:57:18.303Z,8.35
2022-12-11T06:59:45.564Z,9.25
2022-12-11T07:02:17.808Z,7.63
2022-12-11T07:04:44.949Z,8.48
2022-12-11T07:07:12.005Z,6.90
2022-12-11T07:09:41.237Z,6.28
2022-12-11T07:12:08.159Z,5.07
2022-12-11T07:14:35.126Z,6.50
2022-12-11T07:17:02.216Z,6.40
2022-12-11T07:19:29.120Z,6.47
2022-12-11T07:21:56.067Z,7.95
2022-12-11T07:24:22.931Z,6.28
2022-12-11T07:26:49.858Z,4.88
2022-12-11T07:29:16.787Z,6.05
2022-12-11T07:31:43.803Z,7.22
2022-12-11T07:34:14.355Z,6.30
2022-12-11T07:36:41.827Z,5.55
2022-12-11T07:39:09.391Z,5.65
2022-12-11T07:41:36.459Z,5.70
2022-12-11T07:44:03.433Z,6.63
2022-12-11T07:46:32.076Z,6.28
2022-12-11T07:49:01.121Z,6.60
2022-12-11T07:51:33.527Z,6.47
2022-12-11T07:54:02.782Z,5.65
2022-12-11T07:56:30.511Z,6.22
2022-12-11T07:59:01.742Z,5.35
2022-12-11T08:01:30.114Z,5.07
2022-12-11T08:03:57.891Z,6.45
2022-12-11T08:06:27.627Z,5.15
2022-12-11T08:08:55.976Z,4.97
2022-12-11T08:11:23.192Z,6.38
2022-12-11T08:13:50.387Z,6.63
2022-12-11T08:16:17.950Z,6.40
2022-12-11T08:18:46.159Z,6.72
2022-12-11T08:21:22.198Z,8.75
2022-12-11T08:23:49.515Z,7.00
2022-12-11T08:26:30.201Z,7.43
2022-12-11T08:28:57.212Z,7.15
2022-12-11T08:31:24.853Z,7.47
2022-12-11T08:33:52.195Z,8.68
2022-12-11T08:36:21.215Z,9.10
2022-12-11T08:38:48.392Z,7.72
2022-12-11T08:41:21.046Z,7.90
2022-12-11T08:43:48.914Z,5.97
2022-12-11T08:46:16.247Z,6.72
2022-12-11T08:48:43.723Z,8.55
2022-12-11T08:51:15.690Z,8.45
2022-12-11T08:53:43.011Z,7.97
2022-12-11T08:56:12.644Z,7.70
2022-12-11T08:58:39.611Z,11.35
2022-12-11T09:01:15.033Z,12.80
2022-12-11T09:03:42.678Z,10.45
2022-12-11T09:06:13.375Z,10.55
2022-12-11T09:08:43.213Z,8.02
2022-12-11T09:11:15.460Z,7.03
2022-12-11T09:16:12.294Z,10.20
2022-12-11T09:18:39.621Z,8.15
2022-12-11T09:21:10.137Z,12.52
2022-12-11T09:23:37.842Z,10.38
2022-12-11T09:26:06.389Z,7.53
2022-12-11T09:28:33.652Z,11.02
2022-12-11T09:31:00.914Z,10.82
2022-12-11T09:33:28.415Z,10.82
2022-12-11T09:36:03.186Z,10.55
2022-12-11T09:38:30.658Z,11.45
2022-12-11T09:40:57.856Z,8.70
2022-12-11T09:43:44.387Z,7.93
2022-12-11T09:46:15.062Z,8.77
2022-12-11T09:48:45.255Z,13.25
2022-12-11T09:51:22.157Z,9.85
2022-12-11T09:53:50.607Z,11.60
2022-12-11T09:56:26.502Z,8.73
2022-12-11T09:59:28.471Z,9.80
2022-12-11T10:02:13.751Z,10.10
2022-12-11T10:05:06.038Z,11.68
2022-12-11T10:07:44.151Z,12.07
2022-12-11T10:10:27.462Z,13.38
2022-12-11T10:13:19.273Z,9.23
2022-12-11T10:16:01.348Z,8.43
2022-12-11T10:18:29.548Z,6.65
2022-12-11T10:20:57.091Z,8.85
2022-12-11T10:23:48.387Z,9.07
2022-12-11T10:26:19.160Z,8.25
2022-12-11T10:28:46.609Z,9.52
2022-12-11T10:31:20.404Z,7.70
2022-12-11T10:33:57.111Z,7.93
2022-12-11T10:36:30.429Z,8.38
2022-12-11T10:38:57.393Z,8.07
2022-12-11T10:41:32.065Z,7.55
2022-12-11T10:44:01.011Z,7.93
2022-12-11T10:46:29.225Z,5.07
2022-12-11T10:48:58.779Z,9.02
2022-12-11T10:54:26.021Z,4.95
2022-12-11T10:56:53.492Z,7.30
2022-12-11T10:59:31.436Z,5.20
2022-12-11T11:01:58.529Z,6.45
2022-12-11T11:04:36.201Z,8.25
2022-12-11T11:07:12.686Z,5.93
2022-12-11T11:09:40.329Z,6.72
2022-12-11T11:12:26.615Z,7.10
2022-12-11T11:15:05.626Z,9.15
2022-12-11T11:17:35.068Z,8.63
2022-12-11T11:20:12.658Z,9.20
2022-12-11T11:22:43.195Z,5.63
2022-12-11T11:25:21.062Z,6.57
2022-12-11T11:27:52.116Z,7.70
2022-12-11T11:30:31.069Z,5.55
2022-12-11T11:33:05.323Z,7.30
2022-12-11T11:35:33.368Z,7.10
2022-12-11T11:38:18.935Z,7.97
2022-12-11T11:41:13.087Z,6.38
2022-12-11T11:43:47.609Z,5.28
2022-12-11T11:46:18.796Z,5.68
2022-12-11T11:48:59.242Z,6.68
2022-12-11T11:52:11.255Z,5.30
2022-12-11T11:54:43.225Z,6.10
2022-12-11T11:57:18.329Z,5.22
2022-12-11T11:59:54.457Z,5.95
2022-12-11T12:02:21.554Z,6.03
2022-12-11T12:04:51.455Z,6.53
2022-12-11T12:07:27.782Z,6.55
2022-12-11T12:10:18.206Z,5.47
2022-12-11T12:12:54.816Z,5.10
2022-12-11T12:15:31.089Z,6.57
2022-12-11T12:18:10.471Z,8.55
2022-12-11T12:20:53.155Z,9.13
2022-12-11T12:23:39.003Z,8.93
2022-12-11T12:26:16.882Z,9.88
2022-12-11T12:28:52.130Z,8.68
2022-12-11T12:31:21.719Z,9.02
2022-12-11T12:34:14.705Z,9.05
2022-12-11T12:36:53.870Z,7.18
2022-12-11T12:39:46.897Z,7.65
2022-12-11T12:42:25.300Z,6.63
2022-12-11T12:45:13.505Z,9.38
2022-12-11T12:47:42.583Z,6.80
2022-12-11T12:50:21.923Z,6.07
2022-12-11T12:52:49.352Z,4.40
2022-12-11T12:55:29.200Z,3.80
2022-12-11T12:58:02.691Z,4.40
2022-12-11T13:00:33.646Z,3.55
2022-12-11T13:03:14.620Z,5.95
2022-12-11T13:05:44.219Z,5.00
2022-12-11T13:08:12.208Z,3.90
2022-12-11T13:10:41.136Z,3.95
2022-12-11T13:13:37.488Z,4.53
2022-12-11T13:16:28.920Z,5.30
2022-12-11T13:18:55.874Z,4.30
2022-12-11T13:21:31.358Z,4.25
2022-12-11T13:24:13.448Z,5.10
2022-12-11T13:26:40.509Z,5.60
2022-12-11T13:29:34.734Z,5.18
2022-12-11T13:32:10.317Z,10.02
2022-12-11T13:34:43.651Z,13.45
2022-12-11T13:37:34.530Z,9.40
2022-12-11T13:40:06.402Z,8.73
2022-12-11T13:42:51.195Z,6.00
2022-12-11T13:45:36.463Z,5.93
2022-12-11T13:48:05.167Z,5.68
2022-12-11T13:50:33.675Z,4.77
2022-12-11T13:53:02.260Z,6.40
2022-12-11T13:55:34.095Z,3.97
2022-12-11T13:58:01.092Z,3.72
2022-12-11T14:00:30.675Z,4.90
2022-12-11T14:03:01.086Z,4.75
2022-12-11T14:05:28.245Z,5.07
2022-12-11T14:08:00.310Z,6.47
2022-12-11T14:10:30.197Z,6.72
2022-12-11T14:13:00.919Z,4.65
2022-12-11T14:15:30.081Z,3.95
2022-12-11T14:17:57.673Z,3.22
2022-12-11T14:20:27.995Z,4.93
2022-12-11T14:23:17.780Z,4.05
2022-12-11T14:26:03.310Z,4.45
2022-12-11T14:28:37.570Z,4.78
2022-12-11T14:31:06.054Z,4.70
2022-12-11T14:33:36.024Z,4.60
2022-12-11T14:36:03.477Z,6.03
2022-12-11T14:38:39.566Z,6.55
2022-12-11T14:41:24.115Z,5.95
2022-12-11T14:43:58.057Z,6.00
2022-12-11T14:46:40.254Z,5.20
2022-12-11T14:49:16.786Z,6.13
2022-12-11T14:51:44.052Z,6.00
2022-12-11T14:54:27.449Z,7.03
2022-12-11T14:56:55.576Z,8.93
2022-12-11T14:59:30.150Z,9.07
2022-12-11T15:02:01.445Z,7.70
2022-12-11T15:04:33.577Z,8.88
2022-12-11T15:07:00.761Z,10.10
2022-12-11T15:09:38.410Z,9.73
2022-12-11T15:12:11.836Z,9.18
2022-12-11T15:14:51.206Z,6.85
2022-12-11T15:17:19.482Z,4.63
2022-12-11T15:19:51.380Z,5.40
2022-12-11T15:22:26.459Z,4.82
2022-12-11T15:24:54.657Z,4.22
2022-12-11T15:27:38.319Z,4.63
2022-12-11T15:30:34.519Z,5.80
2022-12-11T15:33:11.518Z,5.43
2022-12-11T15:35:40.565Z,5.22
2022-12-11T15:38:27.381Z,4.68
2022-12-11T15:40:54.641Z,5.53
2022-12-11T15:43:21.603Z,5.25
2022-12-11T15:45:48.599Z,6.32
2022-12-11T15:48:15.680Z,6.32
2022-12-11T15:50:43.017Z,6.15
2022-12-11T15:53:09.959Z,5.53
2022-12-11T15:55:38.469Z,5.72
2022-12-11T15:58:09.493Z,5.90
2022-12-11T16:00:36.363Z,6.03
2022-12-11T16:03:03.300Z,7.13
2022-12-11T16:05:30.126Z,8.18
2022-12-11T16:08:00.573Z,8.52
2022-12-11T16:10:27.870Z,7.85
2022-12-11T16:12:59.700Z,10.18
2022-12-11T16:15:27.329Z,8.27
2022-12-11T16:18:05.827Z,5.82
2022-12-11T16:20:33.715Z,7.40
2022-12-11T16:23:00.780Z,6.57
2022-12-11T16:25:28.178Z,7.03
2022-12-11T16:27:59.237Z,6.60
2022-12-11T16:30:26.930Z,6.03
2022-12-11T16:32:54.557Z,5.68
2022-12-11T16:35:22.351Z,5.15
2022-12-11T16:37:50.870Z,4.72
2022-12-11T16:40:18.346Z,6.75
2022-12-11T16:42:46.046Z,5.60
2022-12-11T16:45:16.416Z,5.47
2022-12-11T16:47:44.013Z,3.97
2022-12-11T16:50:14.126Z,6.00
2022-12-11T16:52:41.696Z,5.78
2022-12-11T16:55:12.411Z,4.85
2022-12-11T16:57:56.891Z,7.22
2022-12-11T17:00:39.503Z,4.28
2022-12-11T17:03:10.950Z,4.18
2022-12-11T17:06:14.544Z,5.68
2022-12-11T17:12:34.553Z,5.05
2022-12-11T17:15:19.582Z,5.00
2022-12-11T17:18:03.520Z,4.13
2022-12-11T17:20:32.135Z,5.65
2022-12-11T17:22:59.039Z,7.80
2022-12-11T17:25:41.380Z,7.25
2022-12-11T17:28:19.488Z,6.07
2022-12-11T17:31:12.845Z,8.55
2022-12-11T17:33:56.408Z,8.48
2022-12-11T17:36:26.040Z,6.65
2022-12-11T17:39:00.961Z,7.07
2022-12-11T17:41:39.977Z,6.82
2022-12-11T17:44:09.198Z,6.72
2022-12-11T17:46:56.905Z,8.95
2022-12-11T17:49:30.666Z,6.85
2022-12-11T17:51:58.342Z,5.68
2022-12-11T17:54:25.337Z,6.43
2022-12-11T17:56:55.580Z,6.30
2022-12-11T17:59:22.806Z,7.05
2022-12-11T18:01:57.816Z,5.18
2022-12-11T18:04:28.505Z,7.70
2022-12-11T18:07:01.307Z,9.48
2022-12-11T18:09:29.218Z,9.82
2022-12-11T18:11:56.131Z,9.70
2022-12-11T18:14:23.846Z,9.25
2022-12-11T18:16:57.928Z,9.65
2022-12-11T18:19:27.722Z,9.73
2022-12-11T18:21:59.938Z,9.32
2022-12-11T18:24:31.918Z,8.15
2022-12-11T18:26:59.715Z,11.63
2022-12-11T18:29:26.597Z,11.52
2022-12-11T18:31:53.579Z,10.90
2022-12-11T18:34:20.617Z,8.80
2022-12-11T18:36:47.623Z,6.53
2022-12-11T18:39:14.578Z,7.22
2022-12-11T18:41:41.661Z,9.75
2022-12-11T18:44:10.077Z,7.93
2022-12-11T18:46:37.705Z,9.17
2022-12-11T18:49:05.039Z,6.65
2022-12-11T18:51:32.056Z,9.05
2022-12-11T18:53:59.016Z,8.95
2022-12-11T18:56:26.061Z,7.10
2022-12-11T18:58:53.060Z,7.53
2022-12-11T19:01:26.944Z,6.90
2022-12-11T19:04:02.782Z,5.85
2022-12-11T19:06:32.411Z,6.20
2022-12-11T19:09:00.510Z,5.53
2022-12-11T19:11:30.128Z,6.03
2022-12-11T19:13:57.610Z,7.38
2022-12-11T19:16:27.150Z,7.10
2022-12-11T19:18:54.399Z,5.03
2022-12-11T19:21:26.700Z,4.15
2022-12-11T19:23:55.264Z,6.53
2022-12-11T19:26:23.643Z,4.28
2022-12-11T19:28:51.682Z,6.05
2022-12-11T19:31:22.399Z,5.50
2022-12-11T19:33:49.689Z,6.15
2022-12-11T19:36:18.658Z,10.60
2022-12-11T19:38:51.657Z,11.90
2022-12-11T19:41:26.935Z,12.25
2022-12-11T19:43:55.996Z,10.23
2022-12-11T19:46:33.613Z,9.00
2022-12-11T19:49:14.255Z,7.45
2022-12-11T19:51:43.306Z,7.80
2022-12-11T19:54:16.646Z,7.07
2022-12-11T19:56:47.777Z,7.93
2022-12-11T19:59:17.470Z,12.15
2022-12-11T20:01:47.031Z,10.85
2022-12-11T20:04:18.563Z,8.10
2022-12-11T20:06:54.262Z,11.05
2022-12-11T20:09:28.169Z,7.47
2022-12-11T20:12:09.247Z,7.95
2022-12-11T20:14:38.395Z,8.52
2022-12-11T20:17:12.433Z,5.05
2022-12-11T20:19:41.661Z,5.18
2022-12-11T20:22:15.484Z,5.87
2022-12-11T20:24:42.687Z,4.55
2022-12-11T20:27:09.822Z,6.88
2022-12-11T20:29:38.529Z,5.30
2022-12-11T20:32:06.667Z,6.70
2022-12-11T20:34:33.613Z,5.68
2022-12-11T20:37:00.731Z,6.00
2022-12-11T20:39:27.655Z,6.53
2022-12-11T20:41:54.555Z,6.38
2022-12-11T20:44:21.962Z,7.63
2022-12-11T20:46:48.937Z,9.48
2022-12-11T20:49:16.057Z,8.32
2022-12-11T20:51:43.167Z,8.93
2022-12-11T20:54:10.146Z,6.47
2022-12-11T20:56:38.230Z,6.40
2022-12-11T20:59:05.371Z,6.20
2022-12-11T21:01:35.197Z,6.97
2022-12-11T21:04:02.560Z,8.50
2022-12-11T21:06:32.844Z,7.43
2022-12-11T21:09:06.857Z,8.05
2022-12-11T21:11:34.818Z,6.10
2022-12-11T21:14:01.846Z,10.02
2022-12-11T21:16:29.936Z,9.40
2022-12-11T21:18:57.983Z,6.45
2022-12-11T21:21:26.149Z,7.72
2022-12-11T21:23:53.201Z,6.82
2022-12-11T21:26:21.041Z,10.35
2022-12-11T21:28:49.510Z,9.02
2022-12-11T21:31:18.449Z,14.88
2022-12-11T21:33:46.037Z,9.70
2022-12-11T21:36:15.052Z,8.93
2022-12-11T21:38:43.883Z,8.60
2022-12-11T21:41:14.097Z,9.65
2022-12-11T21:44:06.801Z,9.15
2022-12-11T21:46:29.614Z,8.38
2022-12-11T21:48:59.262Z,7.15
2022-12-11T21:51:36.148Z,7.07
2022-12-11T21:54:06.249Z,10.20
2022-12-11T21:56:33.514Z,7.93
2022-12-11T21:59:01.845Z,7.50
2022-12-11T22:01:32.510Z,8.35
2022-12-11T22:03:59.684Z,9.25
2022-12-11T22:06:26.975Z,9.70
2022-12-11T22:08:53.861Z,8.95
2022-12-11T22:11:22.997Z,8.32
2022-12-11T22:13:49.981Z,7.93
2022-12-11T22:16:17.034Z,6.60
2022-12-11T22:18:44.092Z,6.53
2022-12-11T22:21:11.242Z,8.02
2022-12-11T22:23:39.536Z,8.02
2022-12-11T22:26:07.801Z,6.65
2022-12-11T22:28:34.716Z,7.57
2022-12-11T22:31:01.771Z,10.45
2022-12-11T22:33:28.771Z,8.18
2022-12-11T22:35:57.215Z,9.07
2022-12-11T22:38:25.012Z,6.72
2022-12-11T22:40:53.242Z,9.45
2022-12-11T22:43:20.265Z,7.93
2022-12-11T22:45:47.218Z,8.10
2022-12-11T22:48:14.255Z,5.38
2022-12-11T22:50:41.919Z,6.10
2022-12-11T22:53:08.811Z,7.10
2022-12-11T22:55:39.651Z,5.85
2022-12-11T22:58:06.937Z,5.63
2022-12-11T23:00:34.508Z,4.95
2022-12-11T23:03:02.769Z,4.80
2022-12-11T23:05:29.749Z,6.55
2022-12-11T23:07:56.843Z,5.03
2022-12-11T23:10:23.898Z,7.07
2022-12-11T23:12:50.770Z,7.18
2022-12-11T23:15:18.815Z,5.45
2022-12-11T23:17:45.795Z,5.13
2022-12-11T23:20:12.754Z,6.15
2022-12-11T23:22:39.622Z,5.97
2022-12-11T23:25:06.759Z,6.00
2022-12-11T23:27:33.652Z,6.13
2022-12-11T23:30:00.535Z,6.18
2022-12-11T23:32:27.516Z,5.93
2022-12-11T23:34:54.377Z,8.23
2022-12-11T23:37:21.235Z,6.05
2022-12-11T23:39:48.245Z,5.95
2022-12-11T23:42:15.194Z,3.55
2022-12-11T23:44:42.248Z,6.22
2022-12-11T23:47:09.196Z,4.85
2022-12-11T23:49:36.236Z,6.13
2022-12-11T23:52:03.338Z,4.68
2022-12-11T23:54:30.357Z,6.18
2022-12-11T23:56:57.216Z,6.53
2022-12-11T23:59:24.128Z,4.28
